Riley, KS (66531)

6:22 PM CDT on July 31, 2014 (GMT -0500)
Wildcat Valley (KKSMANHA8) Elev 1160 ft | 39.21 °N, 96.67 °W | Change Station

Current weather conditions updated 1 minute ago

Clear
Clear
84.9 °F
Feels Like 84 °F
N
1.0
Wind Variable Wind from SW
Gusts 1.0 mph

Tomorrow is forecast to be nearly the same temperature as today.

Today
High -- | Low -- °F
--% Chance of Precip.
Yesterday
High -- | Low -- °F
Precip. -- in
6:26 AM 8:40 PM
Waxing Crescent, 21% visible
Pressure 30.01 in
Visibility 10.0 miles
Clouds Clear
Heat Index 84 °F
Dew Point 56 °F
Humidity 37%
Rainfall 0.00 in
Snow Depth Not available.
UV 3 out of 12
Pollen 6.70 out of 12
Air Quality Not available.
Flu Activity Not available.
METAR KMHK 312252Z 00000KT 10SM CLR 30/12 A3004 RMK AO2 SLP163 T03000117

More Conditions Fewer Conditions

Pressure 30.01 in
Visibility 10.0 miles
Clouds Clear
Heat Index 84 °F
Dew Point 56 °F
Humidity 37%
Rainfall 0.00 in
Snow Depth Not available.
UV 3 out of 12
Pollen 6.70 out of 12
Air Quality Not available.
Flu Activity Not available.
METAR KMHK 312252Z 00000KT 10SM CLR 30/12 A3004 RMK AO2 SLP163 T03000117

More Conditions Fewer Conditions

10-Day Weather Forecast

Almanac

Astronomy

Jul. 31, 2014 Rise Set
Actual Time 6:26 AM CDT 8:40 PM CDT
Civil Twilight 5:56 AM CDT 9:10 PM CDT
Nautical Twilight 5:19 AM CDT 9:46 PM CDT
Astronomical Twilight 4:39 AM CDT 10:27 PM CDT
Moon 10:52 AM CDT 10:55 PM CDT
Length of Visible Light 15h 13m
Length of Day
14h 13m
Tomorrow will be 1m 55s shorter.
Waxing Crescent, 21% of the Moon is Illuminated
Today
Waxing Crescent
Aug 3
First Quarter
Aug 10
Full
Aug 17
Last Quarter
Aug 25
New

Today's Extremes

State Highs State Lows

Community

WunderPhotos

Upload Photos

1,739,462 photos uploaded!

Nearby

Snow Depth

Station Depth Elevation
No new snow has been reported.

Earthquake Activity

City Distance Mag. Time & Date
No recent earthquake activity has been reported nearby.
Minimum magnitude displayed is 2.5.

Coastal Water Temperatures

Place Temperature
No Stations Reporting

Nearby Weather Stations

Station Location Temp. Heat Index Dew Point Humidity Wind Precip. Elev Updated Type
Wildcat Valley, Manhattan, KS 84.9 °F 84 °F 56 °F 37% SW  at  1.0 mph 0.00 in / hr 1160 ft 6:20 PM CDT Normal
Wakefield, KS 82.2 °F 82 °F 57 °F 42% South  at  0.0 mph 0.00 in / hr 1272 ft 6:21 PM CDT Rapid Fire
MesoWest MNHTTN , Manhattan, KS 85 °F 82 °F - - North  at  - 0.00 in / hr 1021 ft 3:30 PM CDT MADIS
Eagle's Landing MHK, Manhattan, KS 92.5 °F 91 °F 57 °F 31% SSE  at  2.7 mph - / hr 1024 ft 6:15 PM CDT Normal
Clay County Medical Center, Clay Center, KS 83.6 °F 83 °F 55 °F 38% East  at  5.0 mph 0.00 in / hr 1274 ft 6:21 PM CDT Rapid Fire
Indian Ridge, Junction City, KS 90.9 °F 89 °F 57 °F 32% SSE  at  0.0 mph - / hr 1227 ft 6:20 PM CDT Normal
WTC - St George, St George, KS 88.5 °F 87 °F 56 °F 33% SSE  at  0.0 mph 0.00 in / hr 1115 ft 6:21 PM CDT Rapid Fire

Show More Stations Show Fewer Stations